createdAt,value
2019-04-27T00:02:26.727Z,11.00
2019-04-27T00:05:09.053Z,10.90
2019-04-27T00:07:39.105Z,10.90
2019-04-27T00:10:16.086Z,10.90
2019-04-27T00:12:44.577Z,10.90
2019-04-27T00:15:14.842Z,10.80
2019-04-27T00:17:49.193Z,10.80
2019-04-27T00:20:25.259Z,10.70
2019-04-27T00:23:04.563Z,10.70
2019-04-27T00:25:33.416Z,10.70
2019-04-27T00:28:01.840Z,10.60
2019-04-27T00:30:33.347Z,10.60
2019-04-27T00:33:03.045Z,10.60
2019-04-27T00:35:36.813Z,10.50
2019-04-27T00:38:23.319Z,10.50
2019-04-27T00:40:56.903Z,10.50
2019-04-27T00:43:25.386Z,10.40
2019-04-27T00:45:53.915Z,10.40
2019-04-27T00:48:23.362Z,10.40
2019-04-27T00:50:52.905Z,10.40
2019-04-27T00:53:23.446Z,10.30
2019-04-27T00:55:53.568Z,10.30
2019-04-27T00:58:29.570Z,10.30
2019-04-27T01:00:59.741Z,10.20
2019-04-27T01:03:29.948Z,10.20
2019-04-27T01:05:58.500Z,10.20
2019-04-27T01:08:27.085Z,10.10
2019-04-27T01:10:56.217Z,10.10
2019-04-27T01:13:24.713Z,10.00
2019-04-27T01:15:54.127Z,10.10
2019-04-27T01:18:23.271Z,10.10
2019-04-27T01:20:59.005Z,10.00
2019-04-27T01:23:29.329Z,10.00
2019-04-27T01:26:12.246Z,10.00
2019-04-27T01:28:51.121Z,10.00
2019-04-27T01:31:21.207Z,9.90
2019-04-27T01:33:49.640Z,9.90
2019-04-27T01:36:19.043Z,9.90
2019-04-27T01:38:49.560Z,9.90
2019-04-27T01:41:19.226Z,9.80
2019-04-27T01:43:49.058Z,9.80
2019-04-27T01:46:19.296Z,9.80
2019-04-27T01:48:49.000Z,9.80
2019-04-27T01:51:20.783Z,9.70
2019-04-27T01:53:49.197Z,9.70
2019-04-27T01:56:19.485Z,9.70
2019-04-27T01:58:49.412Z,9.60
2019-04-27T02:01:23.158Z,9.60
2019-04-27T02:04:06.327Z,9.60
2019-04-27T02:06:34.740Z,9.60
2019-04-27T02:09:03.403Z,9.60
2019-04-27T02:11:32.229Z,9.60
2019-04-27T02:14:00.692Z,9.70
2019-04-27T02:16:30.586Z,9.70
2019-04-27T02:18:59.247Z,9.70
2019-04-27T02:21:29.342Z,9.60
2019-04-27T02:23:59.672Z,9.60
2019-04-27T02:26:29.888Z,9.60
2019-04-27T02:29:15.565Z,9.60
2019-04-27T02:34:26.865Z,9.60
2019-04-27T02:36:55.405Z,9.60
2019-04-27T02:39:23.942Z,9.60
2019-04-27T02:41:53.143Z,9.60
2019-04-27T02:44:23.215Z,9.50
2019-04-27T02:46:51.644Z,9.50
2019-04-27T02:49:20.267Z,9.50
2019-04-27T02:51:53.425Z,9.50
2019-04-27T02:54:22.104Z,9.60
2019-04-27T02:56:52.805Z,9.60
2019-04-27T02:59:22.191Z,9.50
2019-04-27T03:01:53.445Z,9.50
2019-04-27T03:04:22.499Z,9.50
2019-04-27T03:06:50.929Z,9.50
2019-04-27T03:09:20.458Z,9.50
2019-04-27T03:11:50.121Z,9.50
2019-04-27T03:14:34.289Z,9.50
2019-04-27T03:17:00.181Z,9.50
2019-04-27T03:19:40.034Z,9.50
2019-04-27T03:22:22.492Z,9.40
2019-04-27T03:24:55.135Z,9.40
2019-04-27T03:27:26.048Z,9.40
2019-04-27T03:29:56.045Z,9.30
2019-04-27T03:32:24.524Z,9.30
2019-04-27T03:34:52.970Z,9.40
2019-04-27T03:37:21.641Z,9.30
2019-04-27T03:39:50.220Z,9.30
2019-04-27T03:42:20.713Z,9.30
2019-04-27T03:44:50.253Z,9.30
2019-04-27T03:47:19.787Z,9.20
2019-04-27T03:49:50.633Z,9.30
2019-04-27T03:52:36.586Z,9.30
2019-04-27T03:55:23.742Z,9.30
2019-04-27T03:58:05.593Z,9.30
2019-04-27T04:00:34.111Z,9.30
2019-04-27T04:03:02.806Z,9.30
2019-04-27T04:05:31.431Z,9.30
2019-04-27T04:08:00.582Z,9.30
2019-04-27T04:10:31.161Z,9.30
2019-04-27T04:13:01.873Z,9.30
2019-04-27T04:15:52.215Z,9.30
2019-04-27T04:18:20.743Z,9.30
2019-04-27T04:20:50.536Z,9.30
2019-04-27T04:23:20.425Z,9.30
2019-04-27T04:25:50.140Z,9.40
2019-04-27T04:28:19.893Z,9.40
2019-04-27T04:30:50.153Z,9.50
2019-04-27T04:33:20.524Z,9.50
2019-04-27T04:35:49.872Z,9.40
2019-04-27T04:38:20.657Z,9.50
2019-04-27T04:40:53.098Z,9.50
2019-04-27T04:43:23.154Z,9.50
2019-04-27T04:46:12.962Z,9.50
2019-04-27T04:48:40.499Z,9.50
2019-04-27T04:51:10.079Z,9.60
2019-04-27T04:53:40.530Z,9.70
2019-04-27T04:56:10.629Z,9.70
2019-04-27T04:58:39.743Z,9.80
2019-04-27T05:01:09.868Z,9.80
2019-04-27T05:03:38.925Z,9.90
2019-04-27T05:06:08.832Z,9.90
2019-04-27T05:08:39.255Z,9.90
2019-04-27T05:11:09.484Z,9.90
2019-04-27T05:13:39.295Z,10.00
2019-04-27T05:16:08.942Z,10.00
2019-04-27T05:18:39.262Z,10.10
2019-04-27T05:21:18.669Z,10.10
2019-04-27T05:23:48.614Z,10.10
2019-04-27T05:26:17.127Z,10.10
2019-04-27T05:28:45.560Z,10.20
2019-04-27T05:31:14.003Z,10.30
2019-04-27T05:33:42.740Z,10.30
2019-04-27T05:36:11.152Z,10.40
2019-04-27T05:38:45.711Z,10.50
2019-04-27T05:41:09.745Z,10.60
2019-04-27T05:43:39.834Z,10.60
2019-04-27T05:46:35.493Z,10.60
2019-04-27T05:49:07.760Z,10.60
2019-04-27T05:51:38.165Z,10.60
2019-04-27T05:54:07.022Z,10.70
2019-04-27T05:56:35.442Z,10.70
2019-04-27T05:59:03.923Z,10.70
2019-04-27T06:01:32.367Z,10.60
2019-04-27T06:04:00.939Z,10.60
2019-04-27T06:06:29.635Z,10.60
2019-04-27T06:08:59.431Z,10.50
2019-04-27T06:11:28.660Z,10.50
2019-04-27T06:13:57.290Z,10.50
2019-04-27T06:16:25.917Z,10.50
2019-04-27T06:18:54.425Z,10.50
2019-04-27T06:21:22.870Z,10.60
2019-04-27T06:23:51.291Z,10.50
2019-04-27T06:26:20.139Z,10.50
2019-04-27T06:28:50.432Z,10.60
2019-04-27T06:31:19.579Z,10.60
2019-04-27T06:33:49.688Z,10.60
2019-04-27T06:36:19.918Z,10.60
2019-04-27T06:39:04.366Z,10.50
2019-04-27T06:41:32.790Z,10.50
2019-04-27T06:44:01.235Z,10.40
2019-04-27T06:46:29.686Z,10.40
2019-04-27T06:48:59.335Z,10.40
2019-04-27T06:51:28.702Z,10.40
2019-04-27T06:53:59.242Z,10.50
2019-04-27T06:56:28.700Z,10.60
2019-04-27T06:58:57.278Z,10.60
2019-04-27T07:01:25.771Z,10.70
2019-04-27T07:03:54.221Z,10.70
2019-04-27T07:06:22.654Z,10.70
2019-04-27T07:08:51.077Z,10.70
2019-04-27T07:11:19.809Z,10.80
2019-04-27T07:13:49.768Z,10.80
2019-04-27T07:16:19.562Z,10.90
2019-04-27T07:18:50.430Z,10.90
2019-04-27T07:21:24.587Z,10.90
2019-04-27T07:23:59.322Z,10.90
2019-04-27T07:26:30.359Z,10.80
2019-04-27T07:28:59.594Z,10.80
2019-04-27T07:31:29.531Z,10.80
2019-04-27T07:33:59.556Z,10.70
2019-04-27T07:36:28.994Z,10.80
2019-04-27T07:38:59.634Z,10.70
2019-04-27T07:41:29.102Z,10.70
2019-04-27T07:44:05.154Z,10.70
2019-04-27T07:46:33.607Z,10.70
2019-04-27T07:49:03.018Z,10.70
2019-04-27T07:51:34.298Z,10.70
2019-04-27T07:54:01.679Z,10.70
2019-04-27T07:56:30.246Z,10.70
2019-04-27T07:58:59.533Z,10.70
2019-04-27T08:01:29.394Z,10.70
2019-04-27T08:03:59.062Z,10.70
2019-04-27T08:06:29.085Z,10.70
2019-04-27T08:08:59.206Z,10.70
2019-04-27T08:11:29.208Z,10.70
2019-04-27T08:13:58.826Z,10.70
2019-04-27T08:16:48.488Z,10.70
2019-04-27T08:19:17.326Z,10.60
2019-04-27T08:21:46.445Z,10.60
2019-04-27T08:24:15.162Z,10.70
2019-04-27T08:26:54.445Z,10.60
2019-04-27T08:29:40.584Z,10.60
2019-04-27T08:32:13.494Z,10.50
2019-04-27T08:34:41.939Z,10.50
2019-04-27T08:37:29.778Z,10.50
2019-04-27T08:39:59.237Z,10.50
2019-04-27T08:42:29.361Z,10.50
2019-04-27T08:44:59.395Z,10.70
2019-04-27T08:47:29.317Z,10.80
2019-04-27T08:49:59.106Z,10.90
2019-04-27T08:52:28.985Z,11.00
2019-04-27T08:54:59.396Z,11.00
2019-04-27T08:57:29.027Z,10.90
2019-04-27T08:59:59.668Z,10.90
2019-04-27T09:02:41.640Z,10.90
2019-04-27T09:04:59.806Z,10.80
2019-04-27T09:07:32.807Z,10.90
2019-04-27T09:10:06.097Z,10.90
2019-04-27T09:12:53.667Z,11.00
2019-04-27T09:15:31.114Z,11.00
2019-04-27T09:18:00.600Z,11.00
2019-04-27T09:20:33.751Z,11.00
2019-04-27T09:23:02.184Z,10.90
2019-04-27T09:25:30.628Z,10.90
2019-04-27T09:27:59.698Z,11.00
2019-04-27T09:30:29.766Z,11.20
2019-04-27T09:32:58.920Z,11.20
2019-04-27T09:35:27.819Z,11.10
2019-04-27T09:37:56.377Z,11.00
2019-04-27T09:40:26.607Z,11.00
2019-04-27T09:42:57.025Z,10.70
2019-04-27T09:45:27.066Z,10.30
2019-04-27T09:47:57.000Z,10.10
2019-04-27T09:50:28.028Z,9.90
2019-04-27T09:52:55.845Z,9.90
2019-04-27T09:55:26.158Z,10.00
2019-04-27T09:57:54.508Z,10.00
2019-04-27T10:00:23.644Z,10.10
2019-04-27T10:02:52.121Z,10.10
2019-04-27T10:05:20.657Z,10.20
2019-04-27T10:07:49.155Z,10.20
2019-04-27T10:10:17.726Z,10.30
2019-04-27T10:12:46.688Z,10.30
2019-04-27T10:15:16.264Z,10.30
2019-04-27T10:17:45.056Z,10.30
2019-04-27T10:20:13.761Z,10.30
2019-04-27T10:22:43.722Z,10.40
2019-04-27T10:25:23.658Z,10.60
2019-04-27T10:27:58.465Z,10.90
2019-04-27T10:30:31.897Z,10.90
2019-04-27T10:33:00.429Z,10.70
2019-04-27T10:35:28.981Z,10.80
2019-04-27T10:37:59.938Z,10.80
2019-04-27T10:40:28.925Z,10.70
2019-04-27T10:42:57.341Z,10.80
2019-04-27T10:45:25.820Z,10.80
2019-04-27T10:47:56.179Z,10.70
2019-04-27T10:50:26.509Z,10.90
2019-04-27T10:52:56.805Z,10.90
2019-04-27T10:55:26.168Z,11.00
2019-04-27T10:57:54.829Z,11.00
2019-04-27T11:00:25.695Z,11.00
2019-04-27T11:02:54.206Z,10.90
2019-04-27T11:05:25.694Z,10.80
2019-04-27T11:07:56.507Z,10.70
2019-04-27T11:10:26.050Z,10.60
2019-04-27T11:12:56.071Z,10.50
2019-04-27T11:15:26.377Z,10.40
2019-04-27T11:17:56.174Z,10.40
2019-04-27T11:20:27.471Z,10.30
2019-04-27T11:23:06.681Z,10.20
2019-04-27T11:25:26.391Z,10.30
2019-04-27T11:27:57.568Z,10.30
2019-04-27T11:30:25.365Z,10.30
2019-04-27T11:32:56.607Z,10.30
2019-04-27T11:35:25.793Z,10.40
2019-04-27T11:37:55.978Z,10.30
2019-04-27T11:40:25.489Z,10.30
2019-04-27T11:42:57.007Z,10.40
2019-04-27T11:45:24.201Z,10.40
2019-04-27T11:47:52.684Z,10.30
2019-04-27T11:50:21.266Z,10.10
2019-04-27T11:52:49.816Z,9.80
2019-04-27T11:55:19.446Z,9.60
2019-04-27T11:57:47.915Z,9.60
2019-04-27T12:00:19.250Z,9.80
2019-04-27T12:02:47.661Z,10.00
2019-04-27T12:05:17.582Z,10.20
2019-04-27T12:07:47.883Z,10.50
2019-04-27T12:10:16.671Z,10.80
2019-04-27T12:12:46.343Z,11.00
2019-04-27T12:15:17.238Z,11.10
2019-04-27T12:17:46.178Z,11.10
2019-04-27T12:20:15.979Z,11.10
2019-04-27T12:22:45.681Z,11.10
2019-04-27T12:25:15.517Z,11.20
2019-04-27T12:27:45.862Z,11.00
2019-04-27T12:30:16.463Z,10.90
2019-04-27T12:32:47.322Z,11.00
2019-04-27T12:35:16.620Z,11.60
2019-04-27T12:37:45.752Z,11.90
2019-04-27T12:40:16.670Z,11.60
2019-04-27T12:42:45.219Z,11.80
2019-04-27T12:45:14.116Z,12.00
2019-04-27T12:47:42.550Z,12.40
2019-04-27T12:50:12.449Z,12.40
2019-04-27T12:52:42.596Z,12.10
2019-04-27T12:55:12.848Z,12.90
2019-04-27T12:58:00.953Z,14.60
2019-04-27T13:00:31.119Z,15.30
2019-04-27T13:02:59.598Z,15.90
2019-04-27T13:05:28.176Z,15.40
2019-04-27T13:07:56.590Z,16.10
2019-04-27T13:10:25.011Z,16.50
2019-04-27T13:12:53.442Z,16.40
2019-04-27T13:15:22.039Z,16.30
2019-04-27T13:17:50.561Z,16.00
2019-04-27T13:20:19.238Z,15.90
2019-04-27T13:22:47.820Z,15.70
2019-04-27T13:25:16.677Z,15.80
2019-04-27T13:27:45.169Z,15.60
2019-04-27T13:30:14.015Z,15.40
2019-04-27T13:32:42.449Z,15.60
2019-04-27T13:35:11.173Z,15.40
2019-04-27T13:37:41.532Z,15.30
2019-04-27T13:40:11.943Z,14.90
2019-04-27T13:42:59.684Z,14.80
2019-04-27T13:45:35.957Z,15.00
2019-04-27T13:48:10.578Z,14.20
2019-04-27T13:50:43.552Z,13.70
2019-04-27T13:53:11.984Z,13.60
2019-04-27T13:55:41.235Z,13.30
2019-04-27T13:58:09.721Z,13.20
2019-04-27T14:00:38.138Z,13.00
2019-04-27T14:03:06.699Z,13.00
2019-04-27T14:05:35.135Z,13.10
2019-04-27T14:08:03.625Z,12.90
2019-04-27T14:10:32.612Z,12.90
2019-04-27T14:13:01.028Z,12.80
2019-04-27T14:15:29.471Z,12.70
2019-04-27T14:17:59.199Z,12.70
2019-04-27T14:20:28.740Z,12.80
2019-04-27T14:23:03.355Z,13.70
2019-04-27T14:25:39.981Z,15.10
2019-04-27T14:28:08.610Z,15.50
2019-04-27T14:30:40.013Z,15.70
2019-04-27T14:33:08.915Z,15.30
2019-04-27T14:35:37.422Z,15.60
2019-04-27T14:38:05.886Z,15.60
2019-04-27T14:40:34.411Z,16.40
2019-04-27T14:43:22.310Z,16.90
2019-04-27T14:45:50.819Z,16.70
2019-04-27T14:48:19.213Z,16.20
2019-04-27T14:50:48.563Z,16.30
2019-04-27T14:53:17.221Z,16.30
2019-04-27T14:55:45.657Z,15.50
2019-04-27T14:58:14.524Z,14.90
2019-04-27T15:00:43.005Z,14.50
2019-04-27T15:03:11.430Z,14.20
2019-04-27T15:05:39.911Z,13.90
2019-04-27T15:08:09.772Z,13.30
2019-04-27T15:10:38.375Z,12.70
2019-04-27T15:13:08.267Z,12.10
2019-04-27T15:15:37.904Z,11.70
2019-04-27T15:18:06.457Z,11.50
2019-04-27T15:20:39.139Z,11.40
2019-04-27T15:23:06.891Z,11.40
2019-04-27T15:25:45.016Z,11.60
2019-04-27T15:28:13.879Z,11.80
2019-04-27T15:30:42.589Z,12.10
2019-04-27T15:33:21.505Z,12.30
2019-04-27T15:35:51.558Z,12.70
2019-04-27T15:38:22.569Z,12.90
2019-04-27T15:41:04.665Z,13.10
2019-04-27T15:43:34.757Z,13.30
2019-04-27T15:46:03.790Z,13.20
2019-04-27T15:48:34.020Z,13.20
2019-04-27T15:51:05.023Z,13.30
2019-04-27T15:53:32.782Z,13.20
2019-04-27T15:56:02.000Z,13.30
2019-04-27T15:58:30.682Z,13.30
2019-04-27T16:01:02.464Z,13.30
2019-04-27T16:03:31.422Z,13.30
2019-04-27T16:06:03.300Z,13.30
2019-04-27T16:08:29.852Z,13.30
2019-04-27T16:10:58.816Z,13.30
2019-04-27T16:13:32.983Z,13.10
2019-04-27T16:15:58.429Z,13.00
2019-04-27T16:18:31.004Z,12.80
2019-04-27T16:20:58.598Z,12.80
2019-04-27T16:23:28.200Z,12.70
2019-04-27T16:25:58.202Z,12.60
2019-04-27T16:28:27.223Z,12.40
2019-04-27T16:30:58.166Z,12.30
2019-04-27T16:33:28.704Z,12.10
2019-04-27T16:36:06.234Z,12.10
2019-04-27T16:38:35.081Z,12.00
2019-04-27T16:41:03.736Z,11.90
2019-04-27T16:43:32.909Z,11.80
2019-04-27T16:46:04.455Z,11.70
2019-04-27T16:48:34.789Z,11.70
2019-04-27T16:51:02.104Z,11.60
2019-04-27T16:53:39.516Z,11.50
2019-04-27T16:56:13.121Z,11.50
2019-04-27T16:58:39.540Z,11.40
2019-04-27T17:01:11.026Z,11.40
2019-04-27T17:03:41.458Z,11.30
2019-04-27T17:06:10.121Z,11.30
2019-04-27T17:08:39.374Z,11.30
2019-04-27T17:11:12.928Z,11.40
2019-04-27T17:13:44.318Z,11.40
2019-04-27T17:16:10.966Z,11.30
2019-04-27T17:18:52.780Z,11.40
2019-04-27T17:21:23.225Z,11.50
2019-04-27T17:23:50.935Z,11.60
2019-04-27T17:26:21.795Z,11.70
2019-04-27T17:29:16.161Z,11.70
2019-04-27T17:31:41.342Z,11.70
2019-04-27T17:34:09.737Z,11.70
2019-04-27T17:36:38.717Z,11.80
2019-04-27T17:39:10.129Z,11.70
2019-04-27T17:41:41.738Z,11.70
2019-04-27T17:44:12.619Z,11.80
2019-04-27T17:46:42.685Z,11.70
2019-04-27T17:49:09.468Z,11.70
2019-04-27T17:51:42.967Z,11.60
2019-04-27T17:54:11.277Z,11.60
2019-04-27T17:56:48.224Z,11.50
2019-04-27T17:59:14.655Z,11.50
2019-04-27T18:01:38.922Z,11.50
2019-04-27T18:04:10.458Z,11.50
2019-04-27T18:06:39.029Z,11.40
2019-04-27T18:09:09.914Z,11.50
2019-04-27T18:11:38.579Z,11.40
2019-04-27T18:14:11.195Z,11.40
2019-04-27T18:16:38.035Z,11.30
2019-04-27T18:19:13.768Z,11.30
2019-04-27T18:21:56.770Z,10.90
2019-04-27T18:24:26.090Z,10.20
2019-04-27T18:27:13.551Z,9.70
2019-04-27T18:29:42.321Z,9.40
2019-04-27T18:32:12.026Z,9.20
2019-04-27T18:34:40.469Z,9.00
2019-04-27T18:37:08.903Z,8.90
2019-04-27T18:39:38.781Z,8.90
2019-04-27T18:42:08.847Z,8.90
2019-04-27T18:44:38.153Z,8.80
2019-04-27T18:47:08.450Z,8.90
2019-04-27T18:50:07.524Z,8.90
2019-04-27T18:52:40.835Z,8.90
2019-04-27T18:55:11.238Z,8.90
2019-04-27T18:57:40.092Z,8.90
2019-04-27T19:00:11.976Z,8.90
2019-04-27T19:02:40.973Z,8.80
2019-04-27T19:05:09.700Z,8.80
2019-04-27T19:07:38.350Z,8.80
2019-04-27T19:10:08.991Z,8.80
2019-04-27T19:12:39.416Z,8.80
2019-04-27T19:15:08.361Z,8.80
2019-04-27T19:17:38.643Z,8.80
2019-04-27T19:20:10.441Z,8.80
2019-04-27T19:22:38.748Z,8.70
2019-04-27T19:25:10.111Z,8.80
2019-04-27T19:27:58.134Z,8.80
2019-04-27T19:30:34.235Z,8.80
2019-04-27T19:33:02.975Z,8.90
2019-04-27T19:35:31.383Z,9.00
2019-04-27T19:37:59.853Z,9.00
2019-04-27T19:40:29.804Z,9.00
2019-04-27T19:43:00.147Z,9.10
2019-04-27T19:45:29.257Z,9.10
2019-04-27T19:47:57.851Z,9.10
2019-04-27T19:50:28.467Z,9.10
2019-04-27T19:52:58.626Z,9.10
2019-04-27T19:55:28.195Z,9.10
2019-04-27T19:57:56.857Z,9.10
2019-04-27T20:00:27.051Z,9.10
2019-04-27T20:02:55.704Z,9.20
2019-04-27T20:05:24.241Z,9.20
2019-04-27T20:07:52.659Z,9.20
2019-04-27T20:10:21.302Z,9.20
2019-04-27T20:12:50.982Z,9.20
2019-04-27T20:15:19.839Z,9.20
2019-04-27T20:17:48.276Z,9.30
2019-04-27T20:20:16.781Z,9.30
2019-04-27T20:22:45.202Z,9.30
2019-04-27T20:25:13.767Z,9.30
2019-04-27T20:27:49.447Z,9.30
2019-04-27T20:30:14.346Z,9.30
2019-04-27T20:32:42.908Z,9.40
2019-04-27T20:35:11.907Z,9.40
2019-04-27T20:37:41.557Z,9.40
2019-04-27T20:40:11.621Z,9.40
2019-04-27T20:42:41.551Z,9.50
2019-04-27T20:45:12.024Z,9.50
2019-04-27T20:47:40.692Z,9.50
2019-04-27T20:50:09.163Z,9.50
2019-04-27T20:52:42.122Z,9.50
2019-04-27T20:55:12.584Z,9.40
2019-04-27T20:57:41.647Z,9.50
2019-04-27T21:00:11.900Z,9.40
2019-04-27T21:02:44.862Z,9.50
2019-04-27T21:05:14.983Z,9.40
2019-04-27T21:07:52.725Z,9.40
2019-04-27T21:10:21.195Z,9.40
2019-04-27T21:12:49.614Z,9.40
2019-04-27T21:15:18.048Z,9.40
2019-04-27T21:17:46.668Z,9.40
2019-04-27T21:20:15.207Z,9.40
2019-04-27T21:22:43.612Z,9.40
2019-04-27T21:25:14.043Z,9.40
2019-04-27T21:27:42.465Z,9.40
2019-04-27T21:30:11.530Z,9.40
2019-04-27T21:32:40.094Z,9.50
2019-04-27T21:35:10.896Z,9.50
2019-04-27T21:37:40.935Z,9.50
2019-04-27T21:40:21.349Z,9.50
2019-04-27T21:42:51.115Z,9.50
2019-04-27T21:45:21.730Z,9.60
2019-04-27T21:47:51.870Z,9.60
2019-04-27T21:50:23.000Z,9.60
2019-04-27T21:53:02.513Z,9.60
2019-04-27T21:55:33.298Z,9.60
2019-04-27T21:58:01.753Z,9.70
2019-04-27T22:00:42.501Z,9.70
2019-04-27T22:03:11.669Z,9.70
2019-04-27T22:05:41.687Z,9.70
2019-04-27T22:08:11.660Z,9.70
2019-04-27T22:10:41.389Z,9.70
2019-04-27T22:13:09.788Z,9.70
2019-04-27T22:15:38.219Z,9.70
2019-04-27T22:18:07.584Z,9.70
2019-04-27T22:20:36.455Z,9.80
2019-04-27T22:23:23.124Z,9.70
2019-04-27T22:25:54.405Z,9.70
2019-04-27T22:28:22.229Z,9.80
2019-04-27T22:30:50.824Z,9.80
2019-04-27T22:33:19.293Z,9.70
2019-04-27T22:35:51.655Z,9.70
2019-04-27T22:38:20.204Z,9.80
2019-04-27T22:41:05.449Z,9.80
2019-04-27T22:43:47.231Z,9.80
2019-04-27T22:46:21.773Z,9.80
2019-04-27T22:48:51.718Z,9.80
2019-04-27T22:51:20.277Z,9.80
2019-04-27T22:53:48.682Z,9.80
2019-04-27T22:56:22.200Z,9.80
2019-04-27T23:01:47.024Z,9.80
2019-04-27T23:04:19.806Z,9.80
2019-04-27T23:06:48.449Z,9.80
2019-04-27T23:09:17.105Z,9.80
2019-04-27T23:11:45.878Z,9.80
2019-04-27T23:14:14.313Z,9.70
2019-04-27T23:16:48.491Z,9.70
2019-04-27T23:19:16.907Z,9.70
2019-04-27T23:21:45.355Z,9.70
2019-04-27T23:24:13.786Z,9.70
2019-04-27T23:26:42.251Z,9.80
2019-04-27T23:29:15.584Z,9.80
2019-04-27T23:34:25.714Z,9.70
2019-04-27T23:36:54.846Z,9.70
2019-04-27T23:39:23.313Z,9.80
2019-04-27T23:41:51.756Z,9.70
2019-04-27T23:44:20.596Z,9.80
2019-04-27T23:46:49.058Z,9.80
2019-04-27T23:49:17.492Z,9.70
2019-04-27T23:52:05.223Z,9.70
2019-04-27T23:54:33.726Z,9.70
2019-04-27T23:57:02.195Z,9.70
2019-04-27T23:59:31.512Z,9.70
